sensor_id;sensor_type;location;lat;lon;timestamp;temperature;humidity
10227;DHT22;15634;48.766;2.272;2024-01-15T00:01:49;0.90;99.90
10227;DHT22;15634;48.766;2.272;2024-01-15T00:04:15;0.90;99.90
10227;DHT22;15634;48.766;2.272;2024-01-15T00:06:40;0.90;99.90
10227;DHT22;15634;48.766;2.272;2024-01-15T00:09:06;1.00;99.90
10227;DHT22;15634;48.766;2.272;2024-01-15T00:11:32;1.00;99.90
10227;DHT22;15634;48.766;2.272;2024-01-15T00:13:57;1.00;99.90
10227;DHT22;15634;48.766;2.272;2024-01-15T00:16:23;1.00;99.90
10227;DHT22;15634;48.766;2.272;2024-01-15T00:18:49;1.00;99.90
10227;DHT22;15634;48.766;2.272;2024-01-15T00:21:15;1.10;99.90
10227;DHT22;15634;48.766;2.272;2024-01-15T00:23:44;1.10;99.90
10227;DHT22;15634;48.766;2.272;2024-01-15T00:26:10;1.00;99.90
10227;DHT22;15634;48.766;2.272;2024-01-15T00:28:36;1.00;99.90
10227;DHT22;15634;48.766;2.272;2024-01-15T00:31:03;1.00;99.90
10227;DHT22;15634;48.766;2.272;2024-01-15T00:33:29;1.00;99.90
10227;DHT22;15634;48.766;2.272;2024-01-15T00:35:55;1.10;99.90
10227;DHT22;15634;48.766;2.272;2024-01-15T00:38:20;1.00;99.90
10227;DHT22;15634;48.766;2.272;2024-01-15T00:40:46;1.00;99.90
10227;DHT22;15634;48.766;2.272;2024-01-15T00:43:11;1.00;99.90
10227;DHT22;15634;48.766;2.272;2024-01-15T00:45:37;1.00;99.90
10227;DHT22;15634;48.766;2.272;2024-01-15T00:48:03;1.00;99.90
10227;DHT22;15634;48.766;2.272;2024-01-15T00:50:29;1.00;99.90
10227;DHT22;15634;48.766;2.272;2024-01-15T00:52:55;1.00;99.90
10227;DHT22;15634;48.766;2.272;2024-01-15T00:55:20;1.00;99.90
10227;DHT22;15634;48.766;2.272;2024-01-15T00:57:46;1.00;99.90
10227;DHT22;15634;48.766;2.272;2024-01-15T01:00:12;1.00;99.90
10227;DHT22;15634;48.766;2.272;2024-01-15T01:02:37;1.00;99.90
10227;DHT22;15634;48.766;2.272;2024-01-15T01:05:03;1.00;99.90
10227;DHT22;15634;48.766;2.272;2024-01-15T01:07:29;1.00;99.90
10227;DHT22;15634;48.766;2.272;2024-01-15T01:09:55;1.00;99.90
10227;DHT22;15634;48.766;2.272;2024-01-15T01:12:20;1.00;99.90
10227;DHT22;15634;48.766;2.272;2024-01-15T01:14:46;1.00;99.90
10227;DHT22;15634;48.766;2.272;2024-01-15T01:17:12;1.00;99.90
10227;DHT22;15634;48.766;2.272;2024-01-15T01:19:37;0.90;99.90
10227;DHT22;15634;48.766;2.272;2024-01-15T01:22:03;0.90;99.90
10227;DHT22;15634;48.766;2.272;2024-01-15T01:24:29;0.90;99.90
10227;DHT22;15634;48.766;2.272;2024-01-15T01:26:55;0.90;99.90
10227;DHT22;15634;48.766;2.272;2024-01-15T01:29:20;0.90;99.90
10227;DHT22;15634;48.766;2.272;2024-01-15T01:31:46;0.90;99.90
10227;DHT22;15634;48.766;2.272;2024-01-15T01:34:14;0.90;99.90
10227;DHT22;15634;48.766;2.272;2024-01-15T01:36:41;0.90;99.90
10227;DHT22;15634;48.766;2.272;2024-01-15T01:39:06;1.00;99.90
10227;DHT22;15634;48.766;2.272;2024-01-15T01:41:32;1.00;99.90
10227;DHT22;15634;48.766;2.272;2024-01-15T01:43:58;1.00;99.90
10227;DHT22;15634;48.766;2.272;2024-01-15T01:46:24;1.00;99.90
10227;DHT22;15634;48.766;2.272;2024-01-15T01:48:51;1.00;99.90
10227;DHT22;15634;48.766;2.272;2024-01-15T01:51:17;1.00;99.90
10227;DHT22;15634;48.766;2.272;2024-01-15T01:53:44;1.00;99.90
10227;DHT22;15634;48.766;2.272;2024-01-15T01:56:10;1.10;99.90
10227;DHT22;15634;48.766;2.272;2024-01-15T01:58:37;1.10;99.90
10227;DHT22;15634;48.766;2.272;2024-01-15T02:01:03;1.10;99.90
10227;DHT22;15634;48.766;2.272;2024-01-15T02:03:30;1.10;99.90
10227;DHT22;15634;48.766;2.272;2024-01-15T02:05:56;1.10;99.90
10227;DHT22;15634;48.766;2.272;2024-01-15T02:08:22;1.20;99.90
10227;DHT22;15634;48.766;2.272;2024-01-15T02:10:48;1.20;99.90
10227;DHT22;15634;48.766;2.272;2024-01-15T02:13:14;1.20;99.90
10227;DHT22;15634;48.766;2.272;2024-01-15T02:15:40;1.20;99.90
10227;DHT22;15634;48.766;2.272;2024-01-15T02:18:06;1.20;99.90
10227;DHT22;15634;48.766;2.272;2024-01-15T02:20:35;1.20;99.90
10227;DHT22;15634;48.766;2.272;2024-01-15T02:25:35;1.20;99.90
10227;DHT22;15634;48.766;2.272;2024-01-15T02:28:02;1.20;99.90
10227;DHT22;15634;48.766;2.272;2024-01-15T02:30:28;1.10;99.90
10227;DHT22;15634;48.766;2.272;2024-01-15T02:32:55;1.20;99.90
10227;DHT22;15634;48.766;2.272;2024-01-15T02:35:20;1.10;99.90
10227;DHT22;15634;48.766;2.272;2024-01-15T02:37:46;1.10;99.90
10227;DHT22;15634;48.766;2.272;2024-01-15T02:40:11;1.10;99.90
10227;DHT22;15634;48.766;2.272;2024-01-15T02:42:37;1.20;99.90
10227;DHT22;15634;48.766;2.272;2024-01-15T02:45:03;1.20;99.90
10227;DHT22;15634;48.766;2.272;2024-01-15T02:47:29;1.20;99.90
10227;DHT22;15634;48.766;2.272;2024-01-15T02:49:54;1.20;99.90
10227;DHT22;15634;48.766;2.272;2024-01-15T02:52:20;1.20;99.90
10227;DHT22;15634;48.766;2.272;2024-01-15T02:54:46;1.20;99.90
10227;DHT22;15634;48.766;2.272;2024-01-15T02:57:11;1.30;99.90
10227;DHT22;15634;48.766;2.272;2024-01-15T02:59:37;1.30;99.90
10227;DHT22;15634;48.766;2.272;2024-01-15T03:02:02;1.30;99.90
10227;DHT22;15634;48.766;2.272;2024-01-15T03:04:28;1.40;99.90
10227;DHT22;15634;48.766;2.272;2024-01-15T03:06:53;1.40;99.90
10227;DHT22;15634;48.766;2.272;2024-01-15T03:09:19;1.40;99.90
10227;DHT22;15634;48.766;2.272;2024-01-15T03:11:44;1.40;99.90
10227;DHT22;15634;48.766;2.272;2024-01-15T03:14:10;1.40;99.90
10227;DHT22;15634;48.766;2.272;2024-01-15T03:16:36;1.40;99.90
10227;DHT22;15634;48.766;2.272;2024-01-15T03:19:01;1.40;99.90
10227;DHT22;15634;48.766;2.272;2024-01-15T03:21:27;1.40;99.90
10227;DHT22;15634;48.766;2.272;2024-01-15T03:23:52;1.40;99.90
10227;DHT22;15634;48.766;2.272;2024-01-15T03:26:18;1.40;99.90
10227;DHT22;15634;48.766;2.272;2024-01-15T03:28:44;1.40;99.90
10227;DHT22;15634;48.766;2.272;2024-01-15T03:31:10;1.40;99.90
10227;DHT22;15634;48.766;2.272;2024-01-15T03:33:35;1.40;99.90
10227;DHT22;15634;48.766;2.272;2024-01-15T03:36:01;1.40;99.90
10227;DHT22;15634;48.766;2.272;2024-01-15T03:38:28;1.40;99.90
10227;DHT22;15634;48.766;2.272;2024-01-15T03:40:54;1.40;99.90
10227;DHT22;15634;48.766;2.272;2024-01-15T03:43:20;1.40;99.90
10227;DHT22;15634;48.766;2.272;2024-01-15T03:45:45;1.40;99.90
10227;DHT22;15634;48.766;2.272;2024-01-15T03:48:11;1.40;99.90
10227;DHT22;15634;48.766;2.272;2024-01-15T03:50:37;1.40;99.90
10227;DHT22;15634;48.766;2.272;2024-01-15T03:53:02;1.40;99.90
10227;DHT22;15634;48.766;2.272;2024-01-15T03:55:28;1.50;99.90
10227;DHT22;15634;48.766;2.272;2024-01-15T03:57:53;1.50;99.90
10227;DHT22;15634;48.766;2.272;2024-01-15T04:00:19;1.50;99.90
10227;DHT22;15634;48.766;2.272;2024-01-15T04:02:45;1.50;99.90
10227;DHT22;15634;48.766;2.272;2024-01-15T04:05:10;1.50;99.90
10227;DHT22;15634;48.766;2.272;2024-01-15T04:07:36;1.60;99.90
10227;DHT22;15634;48.766;2.272;2024-01-15T04:10:02;1.60;99.90
10227;DHT22;15634;48.766;2.272;2024-01-15T04:12:28;1.60;99.90
10227;DHT22;15634;48.766;2.272;2024-01-15T04:14:53;1.60;99.90
10227;DHT22;15634;48.766;2.272;2024-01-15T04:17:19;1.60;99.90
10227;DHT22;15634;48.766;2.272;2024-01-15T04:19:45;1.60;99.90
10227;DHT22;15634;48.766;2.272;2024-01-15T04:22:10;1.70;99.90
10227;DHT22;15634;48.766;2.272;2024-01-15T04:24:36;1.70;99.90
10227;DHT22;15634;48.766;2.272;2024-01-15T04:27:01;1.70;99.90
10227;DHT22;15634;48.766;2.272;2024-01-15T04:29:27;1.70;99.90
10227;DHT22;15634;48.766;2.272;2024-01-15T04:31:53;1.70;99.90
10227;DHT22;15634;48.766;2.272;2024-01-15T04:34:18;1.70;99.90
10227;DHT22;15634;48.766;2.272;2024-01-15T04:36:44;1.70;99.90
10227;DHT22;15634;48.766;2.272;2024-01-15T04:39:10;1.70;99.90
10227;DHT22;15634;48.766;2.272;2024-01-15T04:41:37;1.70;99.90
10227;DHT22;15634;48.766;2.272;2024-01-15T04:44:02;1.70;99.90
10227;DHT22;15634;48.766;2.272;2024-01-15T04:46:28;1.70;99.90
10227;DHT22;15634;48.766;2.272;2024-01-15T04:48:54;1.70;99.90
10227;DHT22;15634;48.766;2.272;2024-01-15T04:51:19;1.70;99.90
10227;DHT22;15634;48.766;2.272;2024-01-15T04:53:45;1.70;99.90
10227;DHT22;15634;48.766;2.272;2024-01-15T04:56:10;1.70;99.90
10227;DHT22;15634;48.766;2.272;2024-01-15T04:58:36;1.70;99.90
10227;DHT22;15634;48.766;2.272;2024-01-15T05:01:01;1.80;99.90
10227;DHT22;15634;48.766;2.272;2024-01-15T05:03:27;1.80;99.90
10227;DHT22;15634;48.766;2.272;2024-01-15T05:05:53;1.80;99.90
10227;DHT22;15634;48.766;2.272;2024-01-15T05:08:18;1.80;99.90
10227;DHT22;15634;48.766;2.272;2024-01-15T05:10:44;1.80;99.90
10227;DHT22;15634;48.766;2.272;2024-01-15T05:13:10;1.80;99.90
10227;DHT22;15634;48.766;2.272;2024-01-15T05:15:35;1.80;99.90
10227;DHT22;15634;48.766;2.272;2024-01-15T05:18:01;1.80;99.90
10227;DHT22;15634;48.766;2.272;2024-01-15T05:20:26;1.80;99.90
10227;DHT22;15634;48.766;2.272;2024-01-15T05:22:52;1.80;99.90
10227;DHT22;15634;48.766;2.272;2024-01-15T05:25:17;1.80;99.90
10227;DHT22;15634;48.766;2.272;2024-01-15T05:27:43;1.80;99.90
10227;DHT22;15634;48.766;2.272;2024-01-15T05:30:09;1.80;99.90
10227;DHT22;15634;48.766;2.272;2024-01-15T05:32:35;1.80;99.90
10227;DHT22;15634;48.766;2.272;2024-01-15T05:35:00;1.80;99.90
10227;DHT22;15634;48.766;2.272;2024-01-15T05:37:26;1.80;99.90
10227;DHT22;15634;48.766;2.272;2024-01-15T05:39:51;1.90;99.90
10227;DHT22;15634;48.766;2.272;2024-01-15T05:42:17;1.90;99.90
10227;DHT22;15634;48.766;2.272;2024-01-15T05:44:42;1.90;99.90
10227;DHT22;15634;48.766;2.272;2024-01-15T05:47:08;1.90;99.90
10227;DHT22;15634;48.766;2.272;2024-01-15T05:49:34;1.90;99.90
10227;DHT22;15634;48.766;2.272;2024-01-15T05:51:59;1.90;99.90
10227;DHT22;15634;48.766;2.272;2024-01-15T05:54:25;2.00;99.90
10227;DHT22;15634;48.766;2.272;2024-01-15T05:56:50;2.00;99.90
10227;DHT22;15634;48.766;2.272;2024-01-15T05:59:16;2.00;99.90
10227;DHT22;15634;48.766;2.272;2024-01-15T06:01:42;2.10;99.90
10227;DHT22;15634;48.766;2.272;2024-01-15T06:04:07;2.10;99.90
10227;DHT22;15634;48.766;2.272;2024-01-15T06:06:33;2.10;99.90
10227;DHT22;15634;48.766;2.272;2024-01-15T06:08:59;2.10;99.90
10227;DHT22;15634;48.766;2.272;2024-01-15T06:11:33;2.10;99.90
10227;DHT22;15634;48.766;2.272;2024-01-15T06:13:59;2.10;99.90
10227;DHT22;15634;48.766;2.272;2024-01-15T06:16:26;2.10;99.90
10227;DHT22;15634;48.766;2.272;2024-01-15T06:18:51;2.10;99.90
10227;DHT22;15634;48.766;2.272;2024-01-15T06:21:17;2.10;99.90
10227;DHT22;15634;48.766;2.272;2024-01-15T06:23:43;2.10;99.90
10227;DHT22;15634;48.766;2.272;2024-01-15T06:26:08;2.10;99.90
10227;DHT22;15634;48.766;2.272;2024-01-15T06:28:34;2.10;99.90
10227;DHT22;15634;48.766;2.272;2024-01-15T06:31:00;2.10;99.90
10227;DHT22;15634;48.766;2.272;2024-01-15T06:33:25;2.10;99.90
10227;DHT22;15634;48.766;2.272;2024-01-15T06:35:51;2.10;99.90
10227;DHT22;15634;48.766;2.272;2024-01-15T06:38:16;2.10;99.90
10227;DHT22;15634;48.766;2.272;2024-01-15T06:40:42;2.10;99.90
10227;DHT22;15634;48.766;2.272;2024-01-15T06:43:14;2.10;99.90
10227;DHT22;15634;48.766;2.272;2024-01-15T06:45:41;2.10;99.90
10227;DHT22;15634;48.766;2.272;2024-01-15T06:48:06;2.10;99.90
10227;DHT22;15634;48.766;2.272;2024-01-15T06:50:33;2.10;99.90
10227;DHT22;15634;48.766;2.272;2024-01-15T06:52:58;2.10;99.90
10227;DHT22;15634;48.766;2.272;2024-01-15T06:55:24;2.10;99.90
10227;DHT22;15634;48.766;2.272;2024-01-15T06:57:51;2.10;99.90
10227;DHT22;15634;48.766;2.272;2024-01-15T07:00:17;2.20;99.90
10227;DHT22;15634;48.766;2.272;2024-01-15T07:02:42;2.10;99.90
10227;DHT22;15634;48.766;2.272;2024-01-15T07:05:08;2.10;99.90
10227;DHT22;15634;48.766;2.272;2024-01-15T07:07:34;2.10;99.90
10227;DHT22;15634;48.766;2.272;2024-01-15T07:09:59;2.10;99.90
10227;DHT22;15634;48.766;2.272;2024-01-15T07:12:25;2.10;99.90
10227;DHT22;15634;48.766;2.272;2024-01-15T07:14:50;2.20;99.90
10227;DHT22;15634;48.766;2.272;2024-01-15T07:17:16;2.20;99.90
10227;DHT22;15634;48.766;2.272;2024-01-15T07:19:41;2.20;99.90
10227;DHT22;15634;48.766;2.272;2024-01-15T07:22:07;2.20;99.90
10227;DHT22;15634;48.766;2.272;2024-01-15T07:24:33;2.20;99.90
10227;DHT22;15634;48.766;2.272;2024-01-15T07:27:01;2.20;99.90
10227;DHT22;15634;48.766;2.272;2024-01-15T07:29:26;2.20;99.90
10227;DHT22;15634;48.766;2.272;2024-01-15T07:31:52;2.20;99.90
10227;DHT22;15634;48.766;2.272;2024-01-15T07:34:18;2.20;99.90
10227;DHT22;15634;48.766;2.272;2024-01-15T07:36:45;2.20;99.90
10227;DHT22;15634;48.766;2.272;2024-01-15T07:39:12;2.20;99.90
10227;DHT22;15634;48.766;2.272;2024-01-15T07:41:37;2.20;99.90
10227;DHT22;15634;48.766;2.272;2024-01-15T07:44:03;2.20;99.90
10227;DHT22;15634;48.766;2.272;2024-01-15T07:46:29;2.20;99.90
10227;DHT22;15634;48.766;2.272;2024-01-15T07:48:54;2.30;99.90
10227;DHT22;15634;48.766;2.272;2024-01-15T07:51:23;2.30;99.90
10227;DHT22;15634;48.766;2.272;2024-01-15T07:53:50;2.30;99.90
10227;DHT22;15634;48.766;2.272;2024-01-15T07:56:15;2.30;99.90
10227;DHT22;15634;48.766;2.272;2024-01-15T07:58:41;2.30;99.90
10227;DHT22;15634;48.766;2.272;2024-01-15T08:01:07;2.30;99.90
10227;DHT22;15634;48.766;2.272;2024-01-15T08:03:33;2.40;99.90
10227;DHT22;15634;48.766;2.272;2024-01-15T08:05:59;2.40;99.90
10227;DHT22;15634;48.766;2.272;2024-01-15T08:08:25;1.90;99.90
10227;DHT22;15634;48.766;2.272;2024-01-15T08:10:54;2.50;99.90
10227;DHT22;15634;48.766;2.272;2024-01-15T08:13:20;2.50;99.90
10227;DHT22;15634;48.766;2.272;2024-01-15T08:15:46;2.50;99.90
10227;DHT22;15634;48.766;2.272;2024-01-15T08:18:12;2.50;99.90
10227;DHT22;15634;48.766;2.272;2024-01-15T08:20:37;2.50;99.90
10227;DHT22;15634;48.766;2.272;2024-01-15T08:23:04;2.50;99.90
10227;DHT22;15634;48.766;2.272;2024-01-15T08:25:29;2.60;99.90
10227;DHT22;15634;48.766;2.272;2024-01-15T08:27:56;2.60;99.90
10227;DHT22;15634;48.766;2.272;2024-01-15T08:30:23;2.60;99.90
10227;DHT22;15634;48.766;2.272;2024-01-15T08:32:55;2.60;99.90
10227;DHT22;15634;48.766;2.272;2024-01-15T08:35:21;2.60;99.90
10227;DHT22;15634;48.766;2.272;2024-01-15T08:37:54;2.70;99.90
10227;DHT22;15634;48.766;2.272;2024-01-15T08:40:19;2.70;99.90
10227;DHT22;15634;48.766;2.272;2024-01-15T08:42:45;2.70;99.90
10227;DHT22;15634;48.766;2.272;2024-01-15T08:45:11;2.70;99.90
10227;DHT22;15634;48.766;2.272;2024-01-15T08:47:37;2.80;99.90
10227;DHT22;15634;48.766;2.272;2024-01-15T08:50:03;2.80;99.90
10227;DHT22;15634;48.766;2.272;2024-01-15T08:52:29;2.80;99.90
10227;DHT22;15634;48.766;2.272;2024-01-15T08:54:56;2.80;99.90
10227;DHT22;15634;48.766;2.272;2024-01-15T08:57:22;2.90;99.90
10227;DHT22;15634;48.766;2.272;2024-01-15T08:59:47;2.90;99.90
10227;DHT22;15634;48.766;2.272;2024-01-15T09:02:13;2.90;99.90
10227;DHT22;15634;48.766;2.272;2024-01-15T09:04:39;3.00;99.90
10227;DHT22;15634;48.766;2.272;2024-01-15T09:07:05;3.00;99.90
10227;DHT22;15634;48.766;2.272;2024-01-15T09:09:30;3.00;99.90
10227;DHT22;15634;48.766;2.272;2024-01-15T09:11:56;3.00;99.90
10227;DHT22;15634;48.766;2.272;2024-01-15T09:14:22;3.10;99.90
10227;DHT22;15634;48.766;2.272;2024-01-15T09:16:51;3.10;99.90
10227;DHT22;15634;48.766;2.272;2024-01-15T09:19:16;3.10;99.90
10227;DHT22;15634;48.766;2.272;2024-01-15T09:21:42;3.20;99.90
10227;DHT22;15634;48.766;2.272;2024-01-15T09:24:07;3.20;99.90
10227;DHT22;15634;48.766;2.272;2024-01-15T09:26:33;3.20;99.90
10227;DHT22;15634;48.766;2.272;2024-01-15T09:28:58;3.20;99.90
10227;DHT22;15634;48.766;2.272;2024-01-15T09:31:24;3.20;99.90
10227;DHT22;15634;48.766;2.272;2024-01-15T09:33:50;3.20;99.90
10227;DHT22;15634;48.766;2.272;2024-01-15T09:36:21;3.20;99.90
10227;DHT22;15634;48.766;2.272;2024-01-15T09:38:48;3.20;99.90
10227;DHT22;15634;48.766;2.272;2024-01-15T09:41:13;3.20;99.90
10227;DHT22;15634;48.766;2.272;2024-01-15T09:43:40;3.30;99.90
10227;DHT22;15634;48.766;2.272;2024-01-15T09:46:06;3.30;99.90
10227;DHT22;15634;48.766;2.272;2024-01-15T09:48:31;3.30;99.90
10227;DHT22;15634;48.766;2.272;2024-01-15T09:51:01;3.30;99.90
10227;DHT22;15634;48.766;2.272;2024-01-15T09:53:27;3.30;99.90
10227;DHT22;15634;48.766;2.272;2024-01-15T09:55:53;3.30;99.90
10227;DHT22;15634;48.766;2.272;2024-01-15T09:58:19;3.30;99.90
10227;DHT22;15634;48.766;2.272;2024-01-15T10:00:45;3.30;99.90
10227;DHT22;15634;48.766;2.272;2024-01-15T10:03:13;3.20;99.90
10227;DHT22;15634;48.766;2.272;2024-01-15T10:05:39;3.20;99.90
10227;DHT22;15634;48.766;2.272;2024-01-15T10:08:05;3.20;99.90
10227;DHT22;15634;48.766;2.272;2024-01-15T10:10:31;3.30;99.90
10227;DHT22;15634;48.766;2.272;2024-01-15T10:12:58;3.40;99.90
10227;DHT22;15634;48.766;2.272;2024-01-15T10:15:27;3.60;99.90
10227;DHT22;15634;48.766;2.272;2024-01-15T10:17:53;3.70;99.90
10227;DHT22;15634;48.766;2.272;2024-01-15T10:20:18;3.80;99.90
10227;DHT22;15634;48.766;2.272;2024-01-15T10:22:47;3.90;99.90
10227;DHT22;15634;48.766;2.272;2024-01-15T10:25:14;3.90;99.90
10227;DHT22;15634;48.766;2.272;2024-01-15T10:27:43;3.80;99.90
10227;DHT22;15634;48.766;2.272;2024-01-15T10:30:09;3.80;99.90
10227;DHT22;15634;48.766;2.272;2024-01-15T10:32:35;3.80;99.90
10227;DHT22;15634;48.766;2.272;2024-01-15T10:35:00;3.90;99.90
10227;DHT22;15634;48.766;2.272;2024-01-15T10:37:26;3.90;99.90
10227;DHT22;15634;48.766;2.272;2024-01-15T10:39:52;4.00;99.90
10227;DHT22;15634;48.766;2.272;2024-01-15T10:42:18;4.10;99.90
10227;DHT22;15634;48.766;2.272;2024-01-15T10:44:44;4.10;99.90
10227;DHT22;15634;48.766;2.272;2024-01-15T10:47:12;4.20;99.90
10227;DHT22;15634;48.766;2.272;2024-01-15T10:49:38;4.30;99.90
10227;DHT22;15634;48.766;2.272;2024-01-15T10:52:04;4.40;99.90
10227;DHT22;15634;48.766;2.272;2024-01-15T10:54:30;4.40;99.90
10227;DHT22;15634;48.766;2.272;2024-01-15T10:56:57;4.50;99.90
10227;DHT22;15634;48.766;2.272;2024-01-15T10:59:22;4.60;99.90
10227;DHT22;15634;48.766;2.272;2024-01-15T11:01:50;4.70;99.90
10227;DHT22;15634;48.766;2.272;2024-01-15T11:04:21;4.70;99.90
10227;DHT22;15634;48.766;2.272;2024-01-15T11:06:51;4.70;99.90
10227;DHT22;15634;48.766;2.272;2024-01-15T11:09:17;4.80;99.90
10227;DHT22;15634;48.766;2.272;2024-01-15T11:11:45;4.80;99.90
10227;DHT22;15634;48.766;2.272;2024-01-15T11:17:00;4.80;97.60
10227;DHT22;15634;48.766;2.272;2024-01-15T11:22:07;4.70;96.50
10227;DHT22;15634;48.766;2.272;2024-01-15T11:24:40;4.70;95.10
10227;DHT22;15634;48.766;2.272;2024-01-15T11:27:07;4.70;93.80
10227;DHT22;15634;48.766;2.272;2024-01-15T11:29:35;4.70;93.30
10227;DHT22;15634;48.766;2.272;2024-01-15T11:32:07;4.70;93.20
10227;DHT22;15634;48.766;2.272;2024-01-15T11:34:59;4.80;93.60
10227;DHT22;15634;48.766;2.272;2024-01-15T11:37:28;4.90;92.90
10227;DHT22;15634;48.766;2.272;2024-01-15T11:40:00;5.00;91.60
10227;DHT22;15634;48.766;2.272;2024-01-15T11:42:26;5.10;91.10
10227;DHT22;15634;48.766;2.272;2024-01-15T11:44:53;5.10;89.10
10227;DHT22;15634;48.766;2.272;2024-01-15T11:47:46;5.00;87.80
10227;DHT22;15634;48.766;2.272;2024-01-15T11:50:15;5.00;86.70
10227;DHT22;15634;48.766;2.272;2024-01-15T11:52:43;5.00;86.80
10227;DHT22;15634;48.766;2.272;2024-01-15T11:55:22;5.00;86.20
10227;DHT22;15634;48.766;2.272;2024-01-15T11:57:52;5.10;86.30
10227;DHT22;15634;48.766;2.272;2024-01-15T12:00:18;5.10;86.60
10227;DHT22;15634;48.766;2.272;2024-01-15T12:02:45;5.20;86.60
10227;DHT22;15634;48.766;2.272;2024-01-15T12:05:13;5.30;85.00
10227;DHT22;15634;48.766;2.272;2024-01-15T12:07:40;5.30;82.80
10227;DHT22;15634;48.766;2.272;2024-01-15T12:10:13;5.30;81.40
10227;DHT22;15634;48.766;2.272;2024-01-15T12:12:59;5.30;81.70
10227;DHT22;15634;48.766;2.272;2024-01-15T12:15:28;5.30;78.30
10227;DHT22;15634;48.766;2.272;2024-01-15T12:17:58;5.30;77.70
10227;DHT22;15634;48.766;2.272;2024-01-15T12:20:25;5.30;78.20
10227;DHT22;15634;48.766;2.272;2024-01-15T12:22:51;5.30;78.80
10227;DHT22;15634;48.766;2.272;2024-01-15T12:25:17;5.30;78.40
10227;DHT22;15634;48.766;2.272;2024-01-15T12:27:43;5.40;78.10
10227;DHT22;15634;48.766;2.272;2024-01-15T12:30:11;5.40;77.50
10227;DHT22;15634;48.766;2.272;2024-01-15T12:32:37;5.40;77.00
10227;DHT22;15634;48.766;2.272;2024-01-15T12:35:03;5.50;77.50
10227;DHT22;15634;48.766;2.272;2024-01-15T12:37:29;5.50;77.60
10227;DHT22;15634;48.766;2.272;2024-01-15T12:39:55;5.50;78.30
10227;DHT22;15634;48.766;2.272;2024-01-15T12:42:21;5.50;76.60
10227;DHT22;15634;48.766;2.272;2024-01-15T12:44:47;5.50;76.30
10227;DHT22;15634;48.766;2.272;2024-01-15T12:47:13;5.50;76.70
10227;DHT22;15634;48.766;2.272;2024-01-15T12:49:39;5.50;75.90
10227;DHT22;15634;48.766;2.272;2024-01-15T12:52:08;5.50;75.50
10227;DHT22;15634;48.766;2.272;2024-01-15T12:54:34;5.40;75.40
10227;DHT22;15634;48.766;2.272;2024-01-15T12:57:00;5.40;74.00
10227;DHT22;15634;48.766;2.272;2024-01-15T12:59:25;5.40;74.40
10227;DHT22;15634;48.766;2.272;2024-01-15T13:01:51;5.40;74.10
10227;DHT22;15634;48.766;2.272;2024-01-15T13:04:24;5.40;74.60
10227;DHT22;15634;48.766;2.272;2024-01-15T13:06:50;5.40;74.10
10227;DHT22;15634;48.766;2.272;2024-01-15T13:09:16;5.30;74.30
10227;DHT22;15634;48.766;2.272;2024-01-15T13:11:45;5.40;74.50
10227;DHT22;15634;48.766;2.272;2024-01-15T13:14:11;5.40;74.90
10227;DHT22;15634;48.766;2.272;2024-01-15T13:16:41;5.50;73.90
10227;DHT22;15634;48.766;2.272;2024-01-15T13:19:08;5.50;73.00
10227;DHT22;15634;48.766;2.272;2024-01-15T13:21:34;5.60;72.40
10227;DHT22;15634;48.766;2.272;2024-01-15T13:24:00;5.60;72.20
10227;DHT22;15634;48.766;2.272;2024-01-15T13:26:25;5.70;71.80
10227;DHT22;15634;48.766;2.272;2024-01-15T13:28:51;5.70;72.70
10227;DHT22;15634;48.766;2.272;2024-01-15T13:31:16;5.80;72.20
10227;DHT22;15634;48.766;2.272;2024-01-15T13:33:42;5.80;71.30
10227;DHT22;15634;48.766;2.272;2024-01-15T13:36:08;5.90;71.00
10227;DHT22;15634;48.766;2.272;2024-01-15T13:38:36;5.90;71.00
10227;DHT22;15634;48.766;2.272;2024-01-15T13:41:04;5.90;70.80
10227;DHT22;15634;48.766;2.272;2024-01-15T13:43:30;5.90;70.20
10227;DHT22;15634;48.766;2.272;2024-01-15T13:45:56;5.90;70.50
10227;DHT22;15634;48.766;2.272;2024-01-15T13:48:22;5.90;71.00
10227;DHT22;15634;48.766;2.272;2024-01-15T13:50:47;5.90;70.80
10227;DHT22;15634;48.766;2.272;2024-01-15T13:53:13;5.90;70.90
10227;DHT22;15634;48.766;2.272;2024-01-15T13:55:38;6.00;71.40
10227;DHT22;15634;48.766;2.272;2024-01-15T13:58:05;6.00;71.30
10227;DHT22;15634;48.766;2.272;2024-01-15T14:00:31;6.10;71.50
10227;DHT22;15634;48.766;2.272;2024-01-15T14:02:57;6.10;71.10
10227;DHT22;15634;48.766;2.272;2024-01-15T14:05:23;6.10;70.70
10227;DHT22;15634;48.766;2.272;2024-01-15T14:07:49;6.10;70.90
10227;DHT22;15634;48.766;2.272;2024-01-15T14:10:14;6.00;70.60
10227;DHT22;15634;48.766;2.272;2024-01-15T14:12:40;5.90;70.40
10227;DHT22;15634;48.766;2.272;2024-01-15T14:15:06;5.80;70.30
10227;DHT22;15634;48.766;2.272;2024-01-15T14:17:32;5.70;70.70
10227;DHT22;15634;48.766;2.272;2024-01-15T14:19:58;5.70;70.90
10227;DHT22;15634;48.766;2.272;2024-01-15T14:22:23;5.70;71.40
10227;DHT22;15634;48.766;2.272;2024-01-15T14:24:49;5.70;71.30
10227;DHT22;15634;48.766;2.272;2024-01-15T14:27:15;5.70;71.40
10227;DHT22;15634;48.766;2.272;2024-01-15T14:29:40;5.80;71.10
10227;DHT22;15634;48.766;2.272;2024-01-15T14:32:06;5.70;70.20
10227;DHT22;15634;48.766;2.272;2024-01-15T14:34:32;5.70;70.50
10227;DHT22;15634;48.766;2.272;2024-01-15T14:36:57;5.60;70.50
10227;DHT22;15634;48.766;2.272;2024-01-15T14:39:23;5.60;70.50
10227;DHT22;15634;48.766;2.272;2024-01-15T14:41:49;5.60;70.60
10227;DHT22;15634;48.766;2.272;2024-01-15T14:44:14;5.60;70.30
10227;DHT22;15634;48.766;2.272;2024-01-15T14:46:40;5.60;69.50
10227;DHT22;15634;48.766;2.272;2024-01-15T14:49:06;5.60;69.70
10227;DHT22;15634;48.766;2.272;2024-01-15T14:51:32;5.70;70.00
10227;DHT22;15634;48.766;2.272;2024-01-15T14:53:58;5.70;69.60
10227;DHT22;15634;48.766;2.272;2024-01-15T14:56:23;5.70;68.70
10227;DHT22;15634;48.766;2.272;2024-01-15T14:58:49;5.60;68.40
10227;DHT22;15634;48.766;2.272;2024-01-15T15:01:15;5.60;68.70
10227;DHT22;15634;48.766;2.272;2024-01-15T15:03:40;5.50;69.10
10227;DHT22;15634;48.766;2.272;2024-01-15T15:06:06;5.50;69.00
10227;DHT22;15634;48.766;2.272;2024-01-15T15:08:35;5.50;69.00
10227;DHT22;15634;48.766;2.272;2024-01-15T15:11:01;5.50;69.00
10227;DHT22;15634;48.766;2.272;2024-01-15T15:13:27;5.50;69.10
10227;DHT22;15634;48.766;2.272;2024-01-15T15:15:53;5.50;69.30
10227;DHT22;15634;48.766;2.272;2024-01-15T15:18:20;5.60;69.70
10227;DHT22;15634;48.766;2.272;2024-01-15T15:20:47;5.60;69.70
10227;DHT22;15634;48.766;2.272;2024-01-15T15:23:12;5.50;69.50
10227;DHT22;15634;48.766;2.272;2024-01-15T15:25:38;5.40;69.60
10227;DHT22;15634;48.766;2.272;2024-01-15T15:28:04;5.40;69.90
10227;DHT22;15634;48.766;2.272;2024-01-15T15:30:33;5.30;70.20
10227;DHT22;15634;48.766;2.272;2024-01-15T15:32:58;5.30;70.60
10227;DHT22;15634;48.766;2.272;2024-01-15T15:35:24;5.20;70.70
10227;DHT22;15634;48.766;2.272;2024-01-15T15:37:49;5.20;70.60
10227;DHT22;15634;48.766;2.272;2024-01-15T15:40:15;5.20;71.00
10227;DHT22;15634;48.766;2.272;2024-01-15T15:42:41;5.20;71.30
10227;DHT22;15634;48.766;2.272;2024-01-15T15:45:07;5.10;71.30
10227;DHT22;15634;48.766;2.272;2024-01-15T15:47:35;5.10;71.50